Ted Stevens Anchorage International Airport
PANC : rendu visible

Aérodrome :











RETROUVEZ-NOUS SUR...

 
LOGIN :

S'inscrire | Disclaimer

   EN    FR    IT 

 









Légende :    VFR   VFR Marginal   IFR   IFR Intensif   IFR Très Intensif
Visi : 
Plafond : 
>= 8 km
>= 3000ft
5 à 8 km
1000 à 3000 ft
1500m à 5 km
500 à 1000 ft
800 à 1500m
200 à 500 ft
< 800m
< 200 ft
Symboles :   Orages  Brouillard  Fortes neiges  Fortes précipitations  Vent > 20 kt






- Altitude de l'aérodrome : 152 ft
- Code IATA : ANC


PANC - Ted Stevens Anchorage International

DERNIER METAR :
  • 302053Z 00000KT 10SM BKN060 OVC170 M06/M10 A2921 RMK AO2 SLP895 I3000 T10561100 58019

METARs EXPIRÉS :
  • 301953Z 00000KT 10SM FEW040 BKN170 M07/M10 A2924 RMK AO2 SLP905 T10671100
  • 301853Z 00000KT 10SM FEW040 BKN170 M06/M09 A2926 RMK AO2 SLP911 I1000 T10611094
  • 301753Z 35004KT 10SM CLR M07/M09 A2927 RMK AO2 SLP915 I6000 T10721094 11044 21083 53002

TAF PANC
Valide du 30 à 19h jusqu'au 02 à 00h UTC


301913Z 3019/0124 VRB04KT P6SM FEW045 BKN200
FM302300 35009KT P6SM FEW045 BKN080 WS020/12035KT
FM010400 35011KT 4SM -SN SCT025 BKN045 WS020/10040KT
FM010600 33012KT P6SM SCT045 BKN070 WS020/10040KT
FM011000 30007KT P6SM BKN045 WS020/14030KT
PROB30 0112/0118 -FZRA
FIR PAZA / Amérique du Nord



MET'MAP, la Météo Aéronautique d'un coup d'oeil ! - Copyright ORBIFLY Décembre 2007 - Disclaimer

ORBIFLY MET'MAP TEAM :

Programmation & Développement : Alexandra Zaïnal
Sur une idée originale de : Baudouin d'Aumeries
Assistance à la programmation : Marc-Olivier Méhu
Soutien technique & logistique : Manuel Goepfert

Contact : metmap@orbifly.com




SOURCES & CREDITS :

   NOAA       Earth
Advisory